Time;durP1;ratioP1;P1;durP2;ratioP2;P2;SDS_P1;SDS_P2;PMS_P1;PMS_P2;Temp;Humidity;BMP_temperature;BMP_pressure;BME280_temperature;BME280_humidity;BME280_pressure;Samples;Min_cycle;Max_cycle;Signal;HPM_P1;HPM_P2
2024/01/17 00:00:36;;;;;;;1.77;1.20;;;;;;;19.69;41.87;95764.16;20804355;28;20391;-72
2024/01/17 00:11:15;;;;;;;2.33;1.25;;;;;;;19.63;41.92;95762.84;20748971;28;20403;-72
2024/01/17 00:21:35;;;;;;;1.50;1.40;;;;;;;19.56;41.89;95739.94;20786850;28;20573;-74
2024/01/17 00:31:54;;;;;;;2.00;1.17;;;;;;;19.51;41.77;95721.28;20731976;28;20054;-74
2024/01/17 00:42:14;;;;;;;1.88;1.55;;;;;;;19.48;41.80;95719.28;20797980;28;20077;-74
2024/01/17 00:52:33;;;;;;;1.38;1.20;;;;;;;19.44;41.57;95707.59;20740826;28;20061;-75
2024/01/17 01:02:52;;;;;;;1.95;1.60;;;;;;;19.36;41.79;95719.38;20759254;28;20045;-74
2024/01/17 01:13:12;;;;;;;2.00;1.45;;;;;;;19.36;41.56;95717.44;20734128;28;20119;-74
2024/01/17 01:23:31;;;;;;;1.98;1.50;;;;;;;19.32;41.56;95705.78;20783517;28;20054;-74
2024/01/17 01:33:50;;;;;;;1.88;1.58;;;;;;;19.27;41.66;95705.28;20787799;28;20068;-74
2024/01/17 01:44:10;;;;;;;2.22;1.55;;;;;;;19.20;41.68;95695.06;20802917;28;20427;-75
2024/01/17 01:54:30;;;;;;;2.83;1.80;;;;;;;19.17;41.67;95679.56;20722490;28;20057;-75
2024/01/17 02:04:52;;;;;;;2.17;1.98;;;;;;;19.15;41.45;95671.00;20751895;28;20128;-74
2024/01/17 02:15:11;;;;;;;2.72;2.17;;;;;;;19.06;41.71;95644.22;20776037;28;20065;-74
2024/01/17 02:25:31;;;;;;;1.77;1.58;;;;;;;19.03;41.68;95615.19;20757479;28;20058;-74
2024/01/17 02:35:51;;;;;;;2.30;2.10;;;;;;;18.98;41.56;95588.50;20789737;28;20116;-74
2024/01/17 02:46:10;;;;;;;2.05;1.70;;;;;;;18.94;41.67;95590.31;20797578;28;20061;-72
2024/01/17 02:56:29;;;;;;;2.65;2.03;;;;;;;18.91;41.51;95572.13;20796648;28;20052;-72
2024/01/17 03:06:51;;;;;;;2.30;1.95;;;;;;;18.81;41.38;95570.72;20774886;28;20077;-72
2024/01/17 03:17:12;;;;;;;2.35;1.67;;;;;;;18.77;41.42;95570.63;20801040;28;20119;-72
2024/01/17 03:27:32;;;;;;;2.08;1.88;;;;;;;18.74;41.46;95563.22;20807303;28;20050;-72
2024/01/17 03:37:51;;;;;;;2.60;1.90;;;;;;;18.71;41.56;95549.66;20779339;28;20076;-72
2024/01/17 03:48:11;;;;;;;2.17;1.98;;;;;;;18.67;41.28;95544.16;20808867;28;20531;-74
2024/01/17 03:58:31;;;;;;;1.90;1.80;;;;;;;18.63;41.50;95520.94;20782059;28;20050;-72
2024/01/17 04:08:50;;;;;;;2.10;1.90;;;;;;;18.56;41.26;95495.38;20775470;28;20064;-72
2024/01/17 04:19:10;;;;;;;2.28;2.03;;;;;;;18.55;41.37;95476.84;20801447;28;20054;-72
2024/01/17 04:29:29;;;;;;;2.83;1.60;;;;;;;18.52;41.25;95464.84;20731031;28;20169;-72
2024/01/17 04:39:48;;;;;;;2.60;2.10;;;;;;;18.47;41.28;95469.72;20797075;28;20446;-72
2024/01/17 04:50:08;;;;;;;1.95;1.73;;;;;;;18.44;41.23;95449.59;20782198;28;20045;-72
2024/01/17 05:00:27;;;;;;;2.30;2.10;;;;;;;18.40;41.25;95447.97;20791954;28;20057;-74
2024/01/17 05:10:47;;;;;;;2.38;2.17;;;;;;;18.33;41.05;95410.84;20785716;28;20124;-75
2024/01/17 05:21:06;;;;;;;2.25;2.05;;;;;;;18.33;41.07;95408.91;20769068;28;20065;-74
2024/01/17 05:31:26;;;;;;;3.30;1.88;;;;;;;18.29;40.87;95386.50;20745439;28;20057;-74
2024/01/17 05:41:45;;;;;;;2.30;1.92;;;;;;;18.31;40.99;95369.97;20768685;28;20076;-74
2024/01/17 05:52:05;;;;;;;3.10;2.33;;;;;;;18.41;42.15;95347.06;20760517;28;20430;-74
2024/01/17 06:02:24;;;;;;;7.15;2.70;;;;;;;18.46;42.04;95344.88;20793071;28;20475;-76
2024/01/17 06:12:44;;;;;;;24.83;2.97;;;;;;;18.54;41.95;95335.00;20742590;28;20718;-72
2024/01/17 06:23:04;;;;;;;5.18;2.67;;;;;;;18.57;42.16;95323.53;20801933;28;20046;-72
2024/01/17 06:33:23;;;;;;;4.53;2.70;;;;;;;18.63;41.88;95319.41;20760284;28;20058;-73
2024/01/17 06:43:44;;;;;;;8.43;4.07;;;;;;;18.67;41.40;95296.00;20758682;28;20053;-72
2024/01/17 06:54:04;;;;;;;6.13;3.75;;;;;;;18.74;41.10;95287.28;20750778;28;20713;-72
2024/01/17 07:04:24;;;;;;;11.13;4.35;;;;;;;18.80;41.15;95279.69;20770701;28;20421;-72
2024/01/17 07:14:43;;;;;;;12.52;5.13;;;;;;;18.92;40.97;95268.78;20796760;28;20049;-72
2024/01/17 07:25:03;;;;;;;11.15;4.80;;;;;;;19.00;40.73;95253.50;20755107;28;20058;-72
2024/01/17 07:35:23;;;;;;;7.90;4.50;;;;;;;19.10;40.44;95228.59;20754592;28;20149;-72
2024/01/17 07:45:42;;;;;;;10.25;4.63;;;;;;;19.14;40.07;95208.63;20743681;28;20745;-72
2024/01/17 07:56:04;;;;;;;8.95;4.70;;;;;;;19.27;39.93;95189.56;20745333;28;20077;-72
2024/01/17 08:06:23;;;;;;;10.82;4.50;;;;;;;19.36;40.08;95161.16;20765610;28;20057;-72
2024/01/17 08:16:44;;;;;;;8.77;4.63;;;;;;;19.46;39.69;95135.44;20764963;28;20105;-72
2024/01/17 08:27:04;;;;;;;11.10;4.47;;;;;;;19.53;39.48;95127.47;20763932;28;20372;-72
2024/01/17 08:37:24;;;;;;;8.68;4.20;;;;;;;19.72;39.24;95113.09;20738502;28;20426;-72
2024/01/17 08:47:44;;;;;;;8.52;4.13;;;;;;;19.79;39.23;95093.47;20790530;28;20058;-72
2024/01/17 08:58:04;;;;;;;7.90;4.00;;;;;;;19.89;38.96;95073.91;20734464;28;20057;-72
2024/01/17 09:08:23;;;;;;;6.70;4.20;;;;;;;19.93;38.68;95085.56;20789541;28;20054;-72
2024/01/17 09:18:43;;;;;;;5.78;3.80;;;;;;;20.04;38.87;95082.22;20747100;28;20045;-72
2024/01/17 09:29:03;;;;;;;6.22;3.75;;;;;;;20.12;38.53;95070.31;20760591;28;20811;-72
2024/01/17 09:39:23;;;;;;;5.20;3.47;;;;;;;20.20;38.40;95053.03;20732421;28;20404;-74
2024/01/17 09:49:43;;;;;;;5.40;3.30;;;;;;;20.28;38.37;95030.31;20726307;28;20130;-76
2024/01/17 10:00:09;;;;;;;5.35;3.50;;;;;;;20.33;38.19;95004.88;20744676;28;20054;-75
2024/01/17 10:10:29;;;;;;;4.40;3.30;;;;;;;20.40;38.14;94974.41;20731621;28;20058;-75
2024/01/17 10:20:48;;;;;;;7.22;3.60;;;;;;;20.52;37.93;94949.78;20758010;28;20054;-75
2024/01/17 10:31:10;;;;;;;4.22;3.22;;;;;;;20.56;37.86;94934.34;20715452;28;20061;-75
2024/01/17 10:41:31;;;;;;;4.88;3.40;;;;;;;20.69;37.75;94910.50;20742917;28;20078;-75
2024/01/17 10:52:11;;;;;;;3.92;3.30;;;;;;;20.70;37.74;94896.59;20760733;28;20053;-75
2024/01/17 11:02:31;;;;;;;4.13;3.40;;;;;;;20.73;37.73;94876.91;20770764;28;20387;-75
2024/01/17 11:12:52;;;;;;;4.32;3.38;;;;;;;20.78;37.76;94847.94;20755855;28;20530;-75
2024/01/17 11:23:39;;;;;;;3.90;3.10;;;;;;;20.80;37.61;94832.88;20751407;28;20108;-75
2024/01/17 11:33:59;;;;;;;4.03;2.70;;;;;;;20.78;37.80;94800.00;20741670;28;20065;-75
2024/01/17 11:44:20;;;;;;;3.67;2.63;;;;;;;20.71;37.87;94784.50;20766941;28;20057;-75
2024/01/17 11:54:40;;;;;;;3.65;2.60;;;;;;;20.76;37.78;94772.56;20761146;28;20539;-75
2024/01/17 12:04:59;;;;;;;3.17;2.63;;;;;;;20.69;37.77;94740.81;20751339;28;20046;-75
2024/01/17 12:15:19;;;;;;;3.95;2.80;;;;;;;20.63;37.96;94690.94;20765030;28;20112;-75
2024/01/17 12:25:38;;;;;;;3.30;2.58;;;;;;;20.62;38.07;94675.09;20729388;28;20049;-76
2024/01/17 12:36:00;;;;;;;3.45;2.70;;;;;;;20.54;38.43;94671.56;20684513;28;20051;-75
2024/01/17 12:46:20;;;;;;;4.53;2.78;;;;;;;20.50;38.02;94665.38;20749360;28;20054;-76
2024/01/17 12:56:40;;;;;;;2.65;2.15;;;;;;;20.52;38.17;94646.81;20737707;28;20486;-75
2024/01/17 13:07:00;;;;;;;2.55;2.35;;;;;;;20.45;38.32;94619.78;20746579;28;20065;-75
2024/01/17 13:17:20;;;;;;;2.45;2.25;;;;;;;20.42;38.28;94583.44;20752789;28;20139;-76
2024/01/17 13:27:40;;;;;;;3.83;2.40;;;;;;;20.39;38.26;94572.63;20760041;28;20104;-75
2024/01/17 13:38:01;;;;;;;2.72;2.33;;;;;;;20.33;38.37;94551.38;20759646;28;20475;-76
2024/01/17 13:48:21;;;;;;;4.25;2.55;;;;;;;20.30;38.48;94525.06;20744388;28;20054;-76
2024/01/17 13:58:40;;;;;;;3.15;2.60;;;;;;;20.28;38.40;94507.69;20744382;28;20046;-75
2024/01/17 14:08:59;;;;;;;2.67;2.10;;;;;;;20.21;38.55;94481.44;20758454;28;20430;-76
2024/01/17 14:19:19;;;;;;;2.78;2.40;;;;;;;20.18;38.76;94470.63;20739047;28;20528;-75
2024/01/17 14:29:38;;;;;;;2.67;2.05;;;;;;;20.11;38.70;94458.63;20759155;28;20065;-75
2024/01/17 14:39:58;;;;;;;2.50;2.28;;;;;;;20.07;38.64;94449.75;20773318;28;20054;-76
2024/01/17 14:50:18;;;;;;;2.70;2.40;;;;;;;20.07;38.55;94430.84;20764711;28;20523;-76
2024/01/17 15:00:37;;;;;;;2.55;2.35;;;;;;;19.98;38.86;94397.25;20771878;28;20100;-75
2024/01/17 15:10:57;;;;;;;3.10;2.55;;;;;;;19.95;38.85;94393.34;20760378;28;20054;-76
2024/01/17 15:21:17;;;;;;;2.60;2.20;;;;;;;19.94;38.73;94375.63;20769088;28;20046;-76
2024/01/17 15:31:38;;;;;;;2.33;2.13;;;;;;;19.88;38.80;94359.00;20753223;28;20069;-76
2024/01/17 15:41:58;;;;;;;2.70;2.22;;;;;;;19.86;39.00;94333.53;20769091;28;20076;-76
2024/01/17 15:52:18;;;;;;;2.40;2.20;;;;;;;19.82;38.83;94303.81;20755950;28;20112;-75
2024/01/17 16:02:37;;;;;;;2.42;2.22;;;;;;;19.82;39.07;94279.50;20752147;28;20422;-75
2024/01/17 16:12:59;;;;;;;2.78;2.58;;;;;;;19.75;38.21;94268.69;20758530;28;20559;-76
2024/01/17 16:23:18;;;;;;;3.67;3.05;;;;;;;19.71;38.63;94246.28;20790300;28;20115;-75
2024/01/17 16:33:38;;;;;;;5.13;3.00;;;;;;;19.83;39.77;94218.91;20766859;28;20054;-75
2024/01/17 16:43:58;;;;;;;7.28;2.88;;;;;;;19.86;39.69;94207.31;20771847;28;20049;-75
2024/01/17 16:54:17;;;;;;;5.03;3.00;;;;;;;19.94;40.83;94198.03;20755531;28;20502;-75
2024/01/17 17:04:37;;;;;;;4.32;2.83;;;;;;;19.99;41.39;94183.34;20763696;28;20061;-75
2024/01/17 17:14:57;;;;;;;5.82;3.05;;;;;;;20.20;41.51;94193.34;20797449;28;20061;-74
2024/01/17 17:25:16;;;;;;;3.08;2.42;;;;;;;20.22;41.81;94180.19;20776153;28;20054;-76
2024/01/17 17:35:36;;;;;;;7.43;3.40;;;;;;;20.32;42.36;94154.28;20757908;28;20506;-76
2024/01/17 17:45:57;;;;;;;6.57;3.28;;;;;;;20.38;43.05;94133.03;20776887;28;20046;-75
2024/01/17 17:56:17;;;;;;;7.10;2.85;;;;;;;20.45;44.33;94144.56;20780148;28;20450;-75
2024/01/17 18:06:36;;;;;;;4.05;2.70;;;;;;;20.42;44.49;94131.81;20794702;28;20124;-72
2024/01/17 18:16:56;;;;;;;3.25;2.38;;;;;;;20.45;44.04;94111.38;20820125;28;20049;-72
2024/01/17 18:27:15;;;;;;;12.48;6.18;;;;;;;20.34;34.05;94112.16;20782470;28;20049;-72
2024/01/17 18:37:34;;;;;;;9.68;4.13;;;;;;;20.16;39.61;94089.88;20791660;28;20422;-71
2024/01/17 18:47:54;;;;;;;5.80;3.78;;;;;;;20.19;39.63;94072.09;20744782;28;20053;-79
2024/01/17 18:58:16;;;;;;;4.40;3.42;;;;;;;20.26;40.02;94048.50;20728044;28;20045;-79
2024/01/17 19:08:36;;;;;;;5.68;3.70;;;;;;;20.25;40.42;94044.25;20725275;28;20053;-82
2024/01/17 19:18:56;;;;;;;4.90;3.38;;;;;;;20.25;40.51;94013.75;20743652;28;20064;-79
2024/01/17 19:29:16;;;;;;;5.13;3.05;;;;;;;20.22;40.88;93990.22;20774349;28;20061;-83
2024/01/17 19:39:36;;;;;;;4.35;2.80;;;;;;;20.21;40.90;93989.44;20756461;28;20386;-82
2024/01/17 19:49:56;;;;;;;5.13;3.08;;;;;;;20.21;40.94;93989.44;20714313;28;20413;-75
2024/01/17 20:00:28;;;;;;;7.03;2.85;;;;;;;20.11;41.02;93982.94;20692322;28;20057;-76
2024/01/17 20:10:48;;;;;;;6.07;2.70;;;;;;;20.05;41.70;93964.81;20690997;28;20061;-75
2024/01/17 20:21:27;;;;;;;4.25;3.15;;;;;;;20.05;42.18;93995.34;20738081;28;20053;-72
2024/01/17 20:31:49;;;;;;;4.13;2.45;;;;;;;20.03;42.58;93983.38;20669860;28;20080;-71
2024/01/17 20:42:08;;;;;;;4.80;3.08;;;;;;;20.03;42.92;93970.66;20701104;28;20057;-72
2024/01/17 20:52:30;;;;;;;7.53;2.80;;;;;;;19.96;43.08;93965.28;20737946;28;20399;-73
2024/01/17 21:02:50;;;;;;;6.00;2.70;;;;;;;19.93;43.28;93963.34;20778482;28;20045;-71
2024/01/17 21:13:09;;;;;;;3.97;2.70;;;;;;;19.89;43.28;93946.41;20787405;28;20058;-72
2024/01/17 21:23:29;;;;;;;4.43;2.60;;;;;;;19.88;43.38;93944.88;20784134;28;20045;-71
2024/01/17 21:33:49;;;;;;;7.03;3.17;;;;;;;19.82;43.08;93959.97;20727736;28;20061;-74
2024/01/17 21:44:09;;;;;;;5.95;3.25;;;;;;;19.73;43.09;93979.28;20766765;28;20054;-75
2024/01/17 21:54:28;;;;;;;5.70;2.92;;;;;;;19.70;43.28;93969.25;20764936;28;20053;-75
2024/01/17 22:04:48;;;;;;;4.13;2.90;;;;;;;19.67;43.21;93972.72;20708052;28;20050;-75
2024/01/17 22:15:08;;;;;;;8.02;3.30;;;;;;;19.66;43.11;93981.97;20794736;28;20062;-75
2024/01/17 22:25:29;;;;;;;6.55;3.40;;;;;;;19.57;44.30;93974.31;20759441;28;20057;-75
2024/01/17 22:35:48;;;;;;;6.10;3.30;;;;;;;19.54;44.68;93969.69;20784387;28;20062;-75
2024/01/17 22:46:08;;;;;;;5.80;3.25;;;;;;;19.52;44.91;93969.31;20750811;28;20049;-71
2024/01/17 22:56:27;;;;;;;7.68;3.47;;;;;;;19.52;44.85;93972.81;20768993;28;20064;-72
2024/01/17 23:06:47;;;;;;;6.38;2.75;;;;;;;19.49;44.79;93978.22;20812328;28;20056;-72
2024/01/17 23:17:06;;;;;;;7.13;3.20;;;;;;;19.46;44.65;93963.53;20810211;28;20045;-72
2024/01/17 23:27:25;;;;;;;6.45;2.72;;;;;;;19.39;44.70;93962.81;20798574;28;20050;-72
2024/01/17 23:37:45;;;;;;;6.18;2.72;;;;;;;19.40;44.65;93957.00;20764874;28;20061;-72
2024/01/17 23:48:04;;;;;;;3.88;2.90;;;;;;;19.38;44.54;93955.88;20760801;28;20057;-71
2024/01/17 23:58:24;;;;;;;4.70;2.70;;;;;;;19.35;44.37;93962.84;20796531;28;20076;-75
